Terminal Aerodrome Forecast
Issued by NWS North Platte, NE

Home | Current Version | Previous Version | Graphics & Text | Print | Product List | Glossary On
Versions: 1 2 3 4 5 6 7 8 9 10 11 12 13 14 15 16 17 18 19 20 21
000
FTUS43 KLBF 270400 AAC
TAFVTN
TAF AMD
KVTN 270402Z 2704/2724 VRB06KT P6SM OVC018
     FM270800 VRB06KT P6SM SCT012 OVC040
      TEMPO 2710/2714 6SM -RASN BKN012 OVC040
     FM271600 17010KT P6SM SCT012 OVC040=

USA.gov is the U.S. government's official web portal to all federal, state and local government web resources and services.